sensor_id;sensor_type;location;lat;lon;timestamp;P1;durP1;ratioP1;P2;durP2;ratioP2
25948;SDS011;13961;51.178;4.448;2023-04-03T00:01:08;10.45;;;6.28;;
25948;SDS011;13961;51.178;4.448;2023-04-03T00:03:34;10.60;;;5.80;;
25948;SDS011;13961;51.178;4.448;2023-04-03T00:06:00;8.93;;;6.15;;
25948;SDS011;13961;51.178;4.448;2023-04-03T00:08:27;10.85;;;6.30;;
25948;SDS011;13961;51.178;4.448;2023-04-03T00:10:55;12.02;;;6.00;;
25948;SDS011;13961;51.178;4.448;2023-04-03T00:13:21;9.95;;;6.00;;
25948;SDS011;13961;51.178;4.448;2023-04-03T00:15:48;10.70;;;6.05;;
25948;SDS011;13961;51.178;4.448;2023-04-03T00:18:13;12.23;;;5.78;;
25948;SDS011;13961;51.178;4.448;2023-04-03T00:20:40;11.10;;;5.90;;
25948;SDS011;13961;51.178;4.448;2023-04-03T00:23:06;9.32;;;5.80;;
25948;SDS011;13961;51.178;4.448;2023-04-03T00:25:32;8.98;;;5.88;;
25948;SDS011;13961;51.178;4.448;2023-04-03T00:27:58;9.40;;;6.05;;
25948;SDS011;13961;51.178;4.448;2023-04-03T00:30:24;13.43;;;5.88;;
25948;SDS011;13961;51.178;4.448;2023-04-03T00:32:50;10.90;;;5.88;;
25948;SDS011;13961;51.178;4.448;2023-04-03T00:35:17;11.85;;;6.82;;
25948;SDS011;13961;51.178;4.448;2023-04-03T00:37:44;10.00;;;6.05;;
25948;SDS011;13961;51.178;4.448;2023-04-03T00:40:10;10.13;;;5.60;;
25948;SDS011;13961;51.178;4.448;2023-04-03T00:42:38;11.73;;;5.97;;
25948;SDS011;13961;51.178;4.448;2023-04-03T00:47:31;9.02;;;5.47;;
25948;SDS011;13961;51.178;4.448;2023-04-03T00:49:57;11.52;;;6.63;;
25948;SDS011;13961;51.178;4.448;2023-04-03T00:52:25;12.00;;;6.10;;
25948;SDS011;13961;51.178;4.448;2023-04-03T00:54:54;12.57;;;6.05;;
25948;SDS011;13961;51.178;4.448;2023-04-03T00:57:26;11.30;;;5.50;;
25948;SDS011;13961;51.178;4.448;2023-04-03T00:59:55;11.30;;;5.82;;
25948;SDS011;13961;51.178;4.448;2023-04-03T01:02:26;11.48;;;5.93;;
25948;SDS011;13961;51.178;4.448;2023-04-03T01:04:52;10.95;;;5.75;;
25948;SDS011;13961;51.178;4.448;2023-04-03T01:07:25;10.40;;;6.45;;
25948;SDS011;13961;51.178;4.448;2023-04-03T01:09:56;10.52;;;5.80;;
25948;SDS011;13961;51.178;4.448;2023-04-03T01:12:32;11.73;;;5.68;;
25948;SDS011;13961;51.178;4.448;2023-04-03T01:15:12;10.48;;;5.72;;
25948;SDS011;13961;51.178;4.448;2023-04-03T01:17:50;11.80;;;6.45;;
25948;SDS011;13961;51.178;4.448;2023-04-03T01:25:17;10.52;;;5.72;;
25948;SDS011;13961;51.178;4.448;2023-04-03T01:27:43;8.57;;;5.60;;
25948;SDS011;13961;51.178;4.448;2023-04-03T01:30:09;8.48;;;6.00;;
25948;SDS011;13961;51.178;4.448;2023-04-03T01:32:35;10.75;;;6.43;;
25948;SDS011;13961;51.178;4.448;2023-04-03T01:35:01;11.10;;;5.85;;
25948;SDS011;13961;51.178;4.448;2023-04-03T01:37:27;10.57;;;6.18;;
25948;SDS011;13961;51.178;4.448;2023-04-03T01:39:52;10.02;;;5.80;;
25948;SDS011;13961;51.178;4.448;2023-04-03T01:42:18;9.52;;;5.63;;
25948;SDS011;13961;51.178;4.448;2023-04-03T01:44:44;7.28;;;5.38;;
25948;SDS011;13961;51.178;4.448;2023-04-03T01:47:10;10.02;;;5.47;;
25948;SDS011;13961;51.178;4.448;2023-04-03T01:49:36;10.00;;;5.72;;
25948;SDS011;13961;51.178;4.448;2023-04-03T01:52:02;11.30;;;5.65;;
25948;SDS011;13961;51.178;4.448;2023-04-03T01:54:27;11.43;;;5.50;;
25948;SDS011;13961;51.178;4.448;2023-04-03T01:56:53;8.25;;;5.15;;
25948;SDS011;13961;51.178;4.448;2023-04-03T01:59:19;9.65;;;5.43;;
25948;SDS011;13961;51.178;4.448;2023-04-03T02:01:44;8.40;;;5.40;;
25948;SDS011;13961;51.178;4.448;2023-04-03T02:04:11;10.55;;;6.32;;
25948;SDS011;13961;51.178;4.448;2023-04-03T02:06:37;9.13;;;5.95;;
25948;SDS011;13961;51.178;4.448;2023-04-03T02:09:03;8.70;;;5.15;;
25948;SDS011;13961;51.178;4.448;2023-04-03T02:11:29;8.70;;;5.72;;
25948;SDS011;13961;51.178;4.448;2023-04-03T02:13:56;11.07;;;6.68;;
25948;SDS011;13961;51.178;4.448;2023-04-03T02:16:21;14.27;;;6.03;;
25948;SDS011;13961;51.178;4.448;2023-04-03T02:18:47;9.88;;;5.47;;
25948;SDS011;13961;51.178;4.448;2023-04-03T02:21:13;11.98;;;6.07;;
25948;SDS011;13961;51.178;4.448;2023-04-03T02:23:38;12.70;;;6.03;;
25948;SDS011;13961;51.178;4.448;2023-04-03T02:26:06;11.98;;;5.78;;
25948;SDS011;13961;51.178;4.448;2023-04-03T02:28:33;9.98;;;5.88;;
25948;SDS011;13961;51.178;4.448;2023-04-03T02:31:00;11.68;;;6.10;;
25948;SDS011;13961;51.178;4.448;2023-04-03T02:33:26;11.43;;;6.10;;
25948;SDS011;13961;51.178;4.448;2023-04-03T02:35:52;11.40;;;5.80;;
25948;SDS011;13961;51.178;4.448;2023-04-03T02:38:21;8.55;;;5.15;;
25948;SDS011;13961;51.178;4.448;2023-04-03T02:40:48;9.23;;;5.47;;
25948;SDS011;13961;51.178;4.448;2023-04-03T02:43:14;10.25;;;6.13;;
25948;SDS011;13961;51.178;4.448;2023-04-03T02:45:40;10.80;;;5.70;;
25948;SDS011;13961;51.178;4.448;2023-04-03T02:48:06;14.30;;;5.88;;
25948;SDS011;13961;51.178;4.448;2023-04-03T02:50:32;11.35;;;5.75;;
25948;SDS011;13961;51.178;4.448;2023-04-03T02:52:58;13.13;;;6.50;;
25948;SDS011;13961;51.178;4.448;2023-04-03T02:55:24;10.70;;;6.07;;
25948;SDS011;13961;51.178;4.448;2023-04-03T02:57:51;11.23;;;5.40;;
25948;SDS011;13961;51.178;4.448;2023-04-03T03:00:17;13.60;;;6.63;;
25948;SDS011;13961;51.178;4.448;2023-04-03T03:02:43;10.20;;;6.05;;
25948;SDS011;13961;51.178;4.448;2023-04-03T03:05:09;12.18;;;6.45;;
25948;SDS011;13961;51.178;4.448;2023-04-03T03:07:35;13.77;;;6.50;;
25948;SDS011;13961;51.178;4.448;2023-04-03T03:10:02;9.05;;;6.03;;
25948;SDS011;13961;51.178;4.448;2023-04-03T03:12:28;9.45;;;6.25;;
25948;SDS011;13961;51.178;4.448;2023-04-03T03:14:55;9.35;;;6.03;;
25948;SDS011;13961;51.178;4.448;2023-04-03T03:17:22;12.02;;;6.97;;
25948;SDS011;13961;51.178;4.448;2023-04-03T03:19:48;10.48;;;6.05;;
25948;SDS011;13961;51.178;4.448;2023-04-03T03:22:13;11.73;;;6.35;;
25948;SDS011;13961;51.178;4.448;2023-04-03T03:24:39;11.93;;;6.68;;
25948;SDS011;13961;51.178;4.448;2023-04-03T03:27:06;9.57;;;5.93;;
25948;SDS011;13961;51.178;4.448;2023-04-03T03:29:31;11.63;;;6.47;;
25948;SDS011;13961;51.178;4.448;2023-04-03T03:31:57;10.73;;;6.28;;
25948;SDS011;13961;51.178;4.448;2023-04-03T03:34:24;9.95;;;6.40;;
25948;SDS011;13961;51.178;4.448;2023-04-03T03:36:50;14.13;;;6.25;;
25948;SDS011;13961;51.178;4.448;2023-04-03T03:39:15;13.45;;;6.88;;
25948;SDS011;13961;51.178;4.448;2023-04-03T03:41:42;11.45;;;6.82;;
25948;SDS011;13961;51.178;4.448;2023-04-03T03:44:08;10.45;;;6.18;;
25948;SDS011;13961;51.178;4.448;2023-04-03T03:46:35;14.68;;;6.70;;
25948;SDS011;13961;51.178;4.448;2023-04-03T03:49:01;11.93;;;6.25;;
25948;SDS011;13961;51.178;4.448;2023-04-03T03:51:28;11.30;;;6.57;;
25948;SDS011;13961;51.178;4.448;2023-04-03T03:53:54;10.13;;;6.55;;
25948;SDS011;13961;51.178;4.448;2023-04-03T03:56:20;13.68;;;6.75;;
25948;SDS011;13961;51.178;4.448;2023-04-03T03:58:47;10.50;;;6.50;;
25948;SDS011;13961;51.178;4.448;2023-04-03T04:01:12;11.35;;;6.65;;
25948;SDS011;13961;51.178;4.448;2023-04-03T04:03:40;14.18;;;7.05;;
25948;SDS011;13961;51.178;4.448;2023-04-03T04:06:06;11.25;;;6.55;;
25948;SDS011;13961;51.178;4.448;2023-04-03T04:08:33;13.23;;;7.13;;
25948;SDS011;13961;51.178;4.448;2023-04-03T04:10:58;13.40;;;7.00;;
25948;SDS011;13961;51.178;4.448;2023-04-03T04:13:24;9.70;;;6.53;;
25948;SDS011;13961;51.178;4.448;2023-04-03T04:15:50;14.38;;;7.45;;
25948;SDS011;13961;51.178;4.448;2023-04-03T04:18:16;14.00;;;7.53;;
25948;SDS011;13961;51.178;4.448;2023-04-03T04:20:44;13.73;;;7.03;;
25948;SDS011;13961;51.178;4.448;2023-04-03T04:23:11;14.13;;;8.10;;
25948;SDS011;13961;51.178;4.448;2023-04-03T04:25:36;14.05;;;7.25;;
25948;SDS011;13961;51.178;4.448;2023-04-03T04:28:02;12.27;;;7.45;;
25948;SDS011;13961;51.178;4.448;2023-04-03T04:30:28;13.43;;;7.53;;
25948;SDS011;13961;51.178;4.448;2023-04-03T04:32:53;11.57;;;7.72;;
25948;SDS011;13961;51.178;4.448;2023-04-03T04:35:19;13.52;;;8.00;;
25948;SDS011;13961;51.178;4.448;2023-04-03T04:37:45;16.30;;;7.78;;
25948;SDS011;13961;51.178;4.448;2023-04-03T04:40:11;13.50;;;7.78;;
25948;SDS011;13961;51.178;4.448;2023-04-03T04:42:36;11.50;;;7.25;;
25948;SDS011;13961;51.178;4.448;2023-04-03T04:45:03;15.77;;;7.47;;
25948;SDS011;13961;51.178;4.448;2023-04-03T04:47:30;14.40;;;7.50;;
25948;SDS011;13961;51.178;4.448;2023-04-03T04:49:56;15.90;;;7.47;;
25948;SDS011;13961;51.178;4.448;2023-04-03T04:52:22;12.20;;;7.95;;
25948;SDS011;13961;51.178;4.448;2023-04-03T04:54:47;12.18;;;7.45;;
25948;SDS011;13961;51.178;4.448;2023-04-03T04:57:13;15.07;;;7.97;;
25948;SDS011;13961;51.178;4.448;2023-04-03T04:59:39;14.10;;;6.97;;
25948;SDS011;13961;51.178;4.448;2023-04-03T05:02:06;13.88;;;7.70;;
25948;SDS011;13961;51.178;4.448;2023-04-03T05:04:31;11.48;;;7.63;;
25948;SDS011;13961;51.178;4.448;2023-04-03T05:06:58;13.35;;;7.80;;
25948;SDS011;13961;51.178;4.448;2023-04-03T05:09:24;12.48;;;7.80;;
25948;SDS011;13961;51.178;4.448;2023-04-03T05:11:50;15.50;;;7.72;;
25948;SDS011;13961;51.178;4.448;2023-04-03T05:14:17;12.43;;;7.15;;
25948;SDS011;13961;51.178;4.448;2023-04-03T05:16:43;13.07;;;8.02;;
25948;SDS011;13961;51.178;4.448;2023-04-03T05:19:08;15.82;;;8.18;;
25948;SDS011;13961;51.178;4.448;2023-04-03T05:21:34;15.20;;;9.02;;
25948;SDS011;13961;51.178;4.448;2023-04-03T05:24:00;15.70;;;8.60;;
25948;SDS011;13961;51.178;4.448;2023-04-03T05:26:28;16.23;;;8.65;;
25948;SDS011;13961;51.178;4.448;2023-04-03T05:28:55;13.98;;;8.18;;
25948;SDS011;13961;51.178;4.448;2023-04-03T05:31:21;16.77;;;8.95;;
25948;SDS011;13961;51.178;4.448;2023-04-03T05:33:47;18.48;;;9.20;;
25948;SDS011;13961;51.178;4.448;2023-04-03T05:36:13;17.95;;;8.95;;
25948;SDS011;13961;51.178;4.448;2023-04-03T05:38:44;17.90;;;10.18;;
25948;SDS011;13961;51.178;4.448;2023-04-03T05:41:10;15.07;;;8.93;;
25948;SDS011;13961;51.178;4.448;2023-04-03T05:43:36;15.93;;;9.77;;
25948;SDS011;13961;51.178;4.448;2023-04-03T05:46:04;15.70;;;9.40;;
25948;SDS011;13961;51.178;4.448;2023-04-03T05:48:34;16.80;;;10.00;;
25948;SDS011;13961;51.178;4.448;2023-04-03T05:51:00;15.90;;;9.48;;
25948;SDS011;13961;51.178;4.448;2023-04-03T05:53:27;18.58;;;10.32;;
25948;SDS011;13961;51.178;4.448;2023-04-03T05:55:55;18.33;;;9.55;;
25948;SDS011;13961;51.178;4.448;2023-04-03T05:58:21;25.63;;;10.02;;
25948;SDS011;13961;51.178;4.448;2023-04-03T06:00:47;15.52;;;9.60;;
25948;SDS011;13961;51.178;4.448;2023-04-03T06:03:13;20.92;;;10.20;;
25948;SDS011;13961;51.178;4.448;2023-04-03T06:05:39;20.92;;;9.68;;
25948;SDS011;13961;51.178;4.448;2023-04-03T06:08:06;24.55;;;9.60;;
25948;SDS011;13961;51.178;4.448;2023-04-03T06:10:34;17.67;;;10.07;;
25948;SDS011;13961;51.178;4.448;2023-04-03T06:13:00;24.55;;;9.65;;
25948;SDS011;13961;51.178;4.448;2023-04-03T06:15:26;16.10;;;9.75;;
25948;SDS011;13961;51.178;4.448;2023-04-03T06:17:52;19.67;;;10.18;;
25948;SDS011;13961;51.178;4.448;2023-04-03T06:20:17;18.73;;;9.73;;
25948;SDS011;13961;51.178;4.448;2023-04-03T06:22:43;17.00;;;9.95;;
25948;SDS011;13961;51.178;4.448;2023-04-03T06:25:09;23.02;;;10.85;;
25948;SDS011;13961;51.178;4.448;2023-04-03T06:27:36;16.13;;;9.30;;
25948;SDS011;13961;51.178;4.448;2023-04-03T06:30:02;19.90;;;10.52;;
25948;SDS011;13961;51.178;4.448;2023-04-03T06:32:27;18.25;;;10.82;;
25948;SDS011;13961;51.178;4.448;2023-04-03T06:34:53;12.35;;;8.13;;
25948;SDS011;13961;51.178;4.448;2023-04-03T06:37:21;9.90;;;6.60;;
25948;SDS011;13961;51.178;4.448;2023-04-03T06:39:49;7.72;;;5.13;;
25948;SDS011;13961;51.178;4.448;2023-04-03T06:42:19;7.68;;;5.00;;
25948;SDS011;13961;51.178;4.448;2023-04-03T06:44:44;6.57;;;4.63;;
25948;SDS011;13961;51.178;4.448;2023-04-03T06:47:14;8.77;;;4.72;;
25948;SDS011;13961;51.178;4.448;2023-04-03T06:49:41;8.63;;;4.70;;
25948;SDS011;13961;51.178;4.448;2023-04-03T06:52:08;7.13;;;4.68;;
25948;SDS011;13961;51.178;4.448;2023-04-03T06:54:34;8.48;;;4.35;;
25948;SDS011;13961;51.178;4.448;2023-04-03T06:57:00;8.27;;;4.35;;
25948;SDS011;13961;51.178;4.448;2023-04-03T06:59:26;8.80;;;4.47;;
25948;SDS011;13961;51.178;4.448;2023-04-03T07:01:52;6.13;;;3.63;;
25948;SDS011;13961;51.178;4.448;2023-04-03T07:04:18;7.07;;;4.15;;
25948;SDS011;13961;51.178;4.448;2023-04-03T07:06:45;10.02;;;4.20;;
25948;SDS011;13961;51.178;4.448;2023-04-03T07:09:14;4.65;;;3.33;;
25948;SDS011;13961;51.178;4.448;2023-04-03T07:11:40;8.27;;;3.90;;
25948;SDS011;13961;51.178;4.448;2023-04-03T07:14:06;6.07;;;3.65;;
25948;SDS011;13961;51.178;4.448;2023-04-03T07:16:33;6.22;;;3.88;;
25948;SDS011;13961;51.178;4.448;2023-04-03T07:18:59;8.00;;;4.20;;
25948;SDS011;13961;51.178;4.448;2023-04-03T07:21:26;6.45;;;4.05;;
25948;SDS011;13961;51.178;4.448;2023-04-03T07:23:55;7.82;;;3.33;;
25948;SDS011;13961;51.178;4.448;2023-04-03T07:26:22;6.18;;;3.17;;
25948;SDS011;13961;51.178;4.448;2023-04-03T07:28:48;6.07;;;3.55;;
25948;SDS011;13961;51.178;4.448;2023-04-03T07:31:15;6.43;;;3.28;;
25948;SDS011;13961;51.178;4.448;2023-04-03T07:33:42;7.60;;;3.28;;
25948;SDS011;13961;51.178;4.448;2023-04-03T07:36:09;6.30;;;3.00;;
25948;SDS011;13961;51.178;4.448;2023-04-03T07:38:36;6.40;;;3.15;;
25948;SDS011;13961;51.178;4.448;2023-04-03T07:41:03;13.93;;;3.30;;
25948;SDS011;13961;51.178;4.448;2023-04-03T07:43:31;6.38;;;3.17;;
25948;SDS011;13961;51.178;4.448;2023-04-03T07:46:00;4.25;;;2.78;;
25948;SDS011;13961;51.178;4.448;2023-04-03T07:48:26;6.38;;;2.90;;
25948;SDS011;13961;51.178;4.448;2023-04-03T07:50:52;4.68;;;2.55;;
25948;SDS011;13961;51.178;4.448;2023-04-03T07:53:18;6.47;;;3.03;;
25948;SDS011;13961;51.178;4.448;2023-04-03T07:55:48;5.55;;;2.78;;
25948;SDS011;13961;51.178;4.448;2023-04-03T07:58:17;6.35;;;2.60;;
25948;SDS011;13961;51.178;4.448;2023-04-03T08:00:43;5.40;;;2.70;;
25948;SDS011;13961;51.178;4.448;2023-04-03T08:03:10;4.85;;;2.40;;
25948;SDS011;13961;51.178;4.448;2023-04-03T08:05:39;5.90;;;2.53;;
25948;SDS011;13961;51.178;4.448;2023-04-03T08:08:06;6.30;;;2.45;;
25948;SDS011;13961;51.178;4.448;2023-04-03T08:10:33;4.43;;;2.83;;
25948;SDS011;13961;51.178;4.448;2023-04-03T08:13:00;4.35;;;2.28;;
25948;SDS011;13961;51.178;4.448;2023-04-03T08:15:29;6.43;;;2.38;;
25948;SDS011;13961;51.178;4.448;2023-04-03T08:17:56;5.32;;;2.20;;
25948;SDS011;13961;51.178;4.448;2023-04-03T08:20:26;5.68;;;2.33;;
25948;SDS011;13961;51.178;4.448;2023-04-03T08:22:52;4.18;;;2.15;;
25948;SDS011;13961;51.178;4.448;2023-04-03T08:25:18;3.17;;;2.03;;
25948;SDS011;13961;51.178;4.448;2023-04-03T08:27:44;5.25;;;2.13;;
25948;SDS011;13961;51.178;4.448;2023-04-03T08:30:10;6.03;;;2.08;;
25948;SDS011;13961;51.178;4.448;2023-04-03T08:32:37;5.63;;;2.35;;
25948;SDS011;13961;51.178;4.448;2023-04-03T08:35:03;5.55;;;2.10;;
25948;SDS011;13961;51.178;4.448;2023-04-03T08:37:29;4.78;;;2.10;;
25948;SDS011;13961;51.178;4.448;2023-04-03T08:39:55;3.67;;;2.08;;
25948;SDS011;13961;51.178;4.448;2023-04-03T08:45:44;4.32;;;2.00;;
25948;SDS011;13961;51.178;4.448;2023-04-03T08:50:48;3.90;;;2.05;;
25948;SDS011;13961;51.178;4.448;2023-04-03T08:53:19;4.65;;;1.90;;
25948;SDS011;13961;51.178;4.448;2023-04-03T08:55:51;3.25;;;1.70;;
25948;SDS011;13961;51.178;4.448;2023-04-03T09:01:03;3.35;;;1.60;;
25948;SDS011;13961;51.178;4.448;2023-04-03T09:03:50;1.58;;;1.25;;
25948;SDS011;13961;51.178;4.448;2023-04-03T09:06:18;4.43;;;1.80;;
25948;SDS011;13961;51.178;4.448;2023-04-03T09:11:44;5.03;;;1.40;;
25948;SDS011;13961;51.178;4.448;2023-04-03T09:22:34;2.45;;;1.30;;
25948;SDS011;13961;51.178;4.448;2023-04-03T09:25:11;3.55;;;1.70;;
25948;SDS011;13961;51.178;4.448;2023-04-03T09:27:42;5.13;;;1.67;;
25948;SDS011;13961;51.178;4.448;2023-04-03T09:30:18;7.03;;;1.85;;
25948;SDS011;13961;51.178;4.448;2023-04-03T09:32:50;3.22;;;1.30;;
25948;SDS011;13961;51.178;4.448;2023-04-03T09:37:47;2.80;;;1.40;;
25948;SDS011;13961;51.178;4.448;2023-04-03T09:42:56;2.22;;;1.35;;
25948;SDS011;13961;51.178;4.448;2023-04-03T09:45:28;5.10;;;1.30;;
25948;SDS011;13961;51.178;4.448;2023-04-03T09:48:05;1.88;;;1.33;;
25948;SDS011;13961;51.178;4.448;2023-04-03T09:50:37;4.72;;;0.95;;
25948;SDS011;13961;51.178;4.448;2023-04-03T09:53:05;2.55;;;1.33;;
25948;SDS011;13961;51.178;4.448;2023-04-03T09:55:41;3.53;;;1.30;;
25948;SDS011;13961;51.178;4.448;2023-04-03T09:58:22;4.07;;;1.20;;
25948;SDS011;13961;51.178;4.448;2023-04-03T10:00:54;4.22;;;1.38;;
25948;SDS011;13961;51.178;4.448;2023-04-03T10:03:25;2.38;;;1.20;;
25948;SDS011;13961;51.178;4.448;2023-04-03T10:05:57;3.85;;;1.33;;
25948;SDS011;13961;51.178;4.448;2023-04-03T10:08:30;2.13;;;1.10;;
25948;SDS011;13961;51.178;4.448;2023-04-03T10:11:12;3.80;;;0.77;;
25948;SDS011;13961;51.178;4.448;2023-04-03T10:14:16;2.28;;;1.45;;
25948;SDS011;13961;51.178;4.448;2023-04-03T10:16:41;2.55;;;1.27;;
25948;SDS011;13961;51.178;4.448;2023-04-03T10:33:24;2.88;;;0.90;;
25948;SDS011;13961;51.178;4.448;2023-04-03T10:38:54;1.70;;;1.10;;
25948;SDS011;13961;51.178;4.448;2023-04-03T10:41:41;2.53;;;1.05;;
25948;SDS011;13961;51.178;4.448;2023-04-03T10:47:20;4.05;;;0.88;;
25948;SDS011;13961;51.178;4.448;2023-04-03T10:50:02;2.03;;;1.20;;
25948;SDS011;13961;51.178;4.448;2023-04-03T10:52:50;2.72;;;1.13;;
25948;SDS011;13961;51.178;4.448;2023-04-03T10:55:41;1.85;;;0.98;;
25948;SDS011;13961;51.178;4.448;2023-04-03T10:58:27;1.70;;;0.90;;
25948;SDS011;13961;51.178;4.448;2023-04-03T11:00:54;1.00;;;0.77;;
25948;SDS011;13961;51.178;4.448;2023-04-03T11:03:42;2.08;;;1.10;;
25948;SDS011;13961;51.178;4.448;2023-04-03T11:06:13;2.47;;;1.02;;
25948;SDS011;13961;51.178;4.448;2023-04-03T11:11:22;2.47;;;1.05;;
25948;SDS011;13961;51.178;4.448;2023-04-03T11:13:54;3.55;;;0.88;;
25948;SDS011;13961;51.178;4.448;2023-04-03T11:16:43;1.65;;;0.85;;
25948;SDS011;13961;51.178;4.448;2023-04-03T11:19:24;2.72;;;0.90;;
25948;SDS011;13961;51.178;4.448;2023-04-03T11:24:51;2.92;;;1.25;;
25948;SDS011;13961;51.178;4.448;2023-04-03T11:27:42;3.25;;;1.02;;
25948;SDS011;13961;51.178;4.448;2023-04-03T11:30:19;2.00;;;0.73;;
25948;SDS011;13961;51.178;4.448;2023-04-03T11:35:26;3.08;;;0.70;;
25948;SDS011;13961;51.178;4.448;2023-04-03T11:37:53;3.00;;;0.60;;
25948;SDS011;13961;51.178;4.448;2023-04-03T11:43:03;2.22;;;0.82;;
25948;SDS011;13961;51.178;4.448;2023-04-03T11:48:41;1.05;;;0.50;;
25948;SDS011;13961;51.178;4.448;2023-04-03T11:53:39;2.15;;;0.52;;
25948;SDS011;13961;51.178;4.448;2023-04-03T12:01:45;1.88;;;0.60;;
25948;SDS011;13961;51.178;4.448;2023-04-03T12:04:11;1.08;;;0.70;;
25948;SDS011;13961;51.178;4.448;2023-04-03T12:09:22;1.27;;;0.70;;
25948;SDS011;13961;51.178;4.448;2023-04-03T12:11:48;1.30;;;0.40;;
25948;SDS011;13961;51.178;4.448;2023-04-03T12:14:15;1.40;;;0.60;;
25948;SDS011;13961;51.178;4.448;2023-04-03T12:24:28;2.65;;;0.90;;
25948;SDS011;13961;51.178;4.448;2023-04-03T12:27:12;0.85;;;0.70;;
25948;SDS011;13961;51.178;4.448;2023-04-03T12:30:03;1.15;;;0.82;;
25948;SDS011;13961;51.178;4.448;2023-04-03T12:32:43;1.08;;;0.73;;
25948;SDS011;13961;51.178;4.448;2023-04-03T12:38:17;1.73;;;0.63;;
25948;SDS011;13961;51.178;4.448;2023-04-03T12:44:22;1.98;;;0.80;;
25948;SDS011;13961;51.178;4.448;2023-04-03T12:47:02;0.82;;;0.63;;
25948;SDS011;13961;51.178;4.448;2023-04-03T12:49:41;1.70;;;0.70;;
25948;SDS011;13961;51.178;4.448;2023-04-03T12:54:54;2.28;;;0.70;;
25948;SDS011;13961;51.178;4.448;2023-04-03T12:57:23;1.00;;;0.70;;
25948;SDS011;13961;51.178;4.448;2023-04-03T12:59:51;1.65;;;0.70;;
25948;SDS011;13961;51.178;4.448;2023-04-03T13:04:47;1.30;;;0.98;;
25948;SDS011;13961;51.178;4.448;2023-04-03T13:07:33;1.08;;;0.90;;
25948;SDS011;13961;51.178;4.448;2023-04-03T13:12:32;1.10;;;0.63;;
25948;SDS011;13961;51.178;4.448;2023-04-03T13:15:00;1.50;;;0.73;;
25948;SDS011;13961;51.178;4.448;2023-04-03T13:17:38;1.75;;;0.75;;
25948;SDS011;13961;51.178;4.448;2023-04-03T13:20:22;1.75;;;0.98;;
25948;SDS011;13961;51.178;4.448;2023-04-03T13:25:26;1.63;;;0.82;;
25948;SDS011;13961;51.178;4.448;2023-04-03T13:27:54;1.25;;;0.60;;
25948;SDS011;13961;51.178;4.448;2023-04-03T13:30:27;1.13;;;0.70;;
25948;SDS011;13961;51.178;4.448;2023-04-03T13:33:00;1.27;;;0.75;;
25948;SDS011;13961;51.178;4.448;2023-04-03T13:35:32;4.40;;;1.00;;
25948;SDS011;13961;51.178;4.448;2023-04-03T13:38:01;1.42;;;0.90;;
25948;SDS011;13961;51.178;4.448;2023-04-03T13:40:30;2.17;;;0.70;;
25948;SDS011;13961;51.178;4.448;2023-04-03T13:43:06;2.45;;;0.90;;
25948;SDS011;13961;51.178;4.448;2023-04-03T13:51:17;1.90;;;0.77;;
25948;SDS011;13961;51.178;4.448;2023-04-03T13:53:57;3.20;;;0.85;;
25948;SDS011;13961;51.178;4.448;2023-04-03T13:59:03;3.58;;;0.60;;
25948;SDS011;13961;51.178;4.448;2023-04-03T14:01:35;1.85;;;0.85;;
25948;SDS011;13961;51.178;4.448;2023-04-03T14:04:18;1.92;;;0.80;;
25948;SDS011;13961;51.178;4.448;2023-04-03T14:06:46;1.95;;;0.70;;
25948;SDS011;13961;51.178;4.448;2023-04-03T14:09:13;2.45;;;0.93;;
25948;SDS011;13961;51.178;4.448;2023-04-03T14:11:40;1.55;;;0.80;;
25948;SDS011;13961;51.178;4.448;2023-04-03T14:14:11;0.50;;;0.50;;
25948;SDS011;13961;51.178;4.448;2023-04-03T14:16:41;1.45;;;0.60;;
25948;SDS011;13961;51.178;4.448;2023-04-03T14:19:17;3.10;;;1.00;;
25948;SDS011;13961;51.178;4.448;2023-04-03T14:21:46;4.15;;;1.25;;
25948;SDS011;13961;51.178;4.448;2023-04-03T14:24:11;1.85;;;0.88;;
25948;SDS011;13961;51.178;4.448;2023-04-03T14:26:37;0.65;;;0.60;;
25948;SDS011;13961;51.178;4.448;2023-04-03T14:29:03;1.95;;;0.80;;
25948;SDS011;13961;51.178;4.448;2023-04-03T14:31:30;2.72;;;0.80;;
25948;SDS011;13961;51.178;4.448;2023-04-03T14:33:55;1.60;;;0.90;;
25948;SDS011;13961;51.178;4.448;2023-04-03T14:36:22;1.83;;;0.70;;
25948;SDS011;13961;51.178;4.448;2023-04-03T14:38:54;3.13;;;0.80;;
25948;SDS011;13961;51.178;4.448;2023-04-03T14:41:22;1.10;;;0.73;;
25948;SDS011;13961;51.178;4.448;2023-04-03T14:43:49;1.33;;;0.80;;
25948;SDS011;13961;51.178;4.448;2023-04-03T14:48:53;1.13;;;0.70;;
25948;SDS011;13961;51.178;4.448;2023-04-03T14:51:19;1.15;;;0.60;;
25948;SDS011;13961;51.178;4.448;2023-04-03T14:53:44;1.05;;;0.70;;
25948;SDS011;13961;51.178;4.448;2023-04-03T14:56:21;1.95;;;0.80;;
25948;SDS011;13961;51.178;4.448;2023-04-03T14:58:52;2.42;;;0.80;;
25948;SDS011;13961;51.178;4.448;2023-04-03T15:01:20;3.83;;;0.77;;
25948;SDS011;13961;51.178;4.448;2023-04-03T15:03:46;1.33;;;0.63;;
25948;SDS011;13961;51.178;4.448;2023-04-03T15:06:12;1.52;;;0.68;;
25948;SDS011;13961;51.178;4.448;2023-04-03T15:08:39;2.50;;;0.85;;
25948;SDS011;13961;51.178;4.448;2023-04-03T15:11:08;1.70;;;0.90;;
25948;SDS011;13961;51.178;4.448;2023-04-03T15:13:35;2.70;;;0.90;;
25948;SDS011;13961;51.178;4.448;2023-04-03T15:16:01;4.07;;;0.88;;
25948;SDS011;13961;51.178;4.448;2023-04-03T15:18:29;3.33;;;0.60;;
25948;SDS011;13961;51.178;4.448;2023-04-03T15:21:00;0.95;;;0.60;;
25948;SDS011;13961;51.178;4.448;2023-04-03T15:23:26;1.70;;;0.55;;
25948;SDS011;13961;51.178;4.448;2023-04-03T15:25:53;1.17;;;0.60;;
25948;SDS011;13961;51.178;4.448;2023-04-03T15:28:35;1.92;;;1.20;;
25948;SDS011;13961;51.178;4.448;2023-04-03T15:31:06;0.77;;;0.70;;
25948;SDS011;13961;51.178;4.448;2023-04-03T15:33:34;2.75;;;0.80;;
25948;SDS011;13961;51.178;4.448;2023-04-03T15:36:00;1.45;;;0.90;;
25948;SDS011;13961;51.178;4.448;2023-04-03T15:38:27;2.30;;;0.88;;
25948;SDS011;13961;51.178;4.448;2023-04-03T15:40:53;1.50;;;0.80;;
25948;SDS011;13961;51.178;4.448;2023-04-03T15:43:20;2.95;;;1.00;;
25948;SDS011;13961;51.178;4.448;2023-04-03T15:45:46;1.75;;;0.80;;
25948;SDS011;13961;51.178;4.448;2023-04-03T15:48:12;2.83;;;0.85;;
25948;SDS011;13961;51.178;4.448;2023-04-03T15:50:38;3.05;;;1.05;;
25948;SDS011;13961;51.178;4.448;2023-04-03T15:53:05;1.80;;;0.90;;
25948;SDS011;13961;51.178;4.448;2023-04-03T15:55:32;0.98;;;0.80;;
25948;SDS011;13961;51.178;4.448;2023-04-03T15:57:59;2.33;;;0.88;;
25948;SDS011;13961;51.178;4.448;2023-04-03T16:00:26;4.65;;;0.98;;
25948;SDS011;13961;51.178;4.448;2023-04-03T16:02:53;3.55;;;1.00;;
25948;SDS011;13961;51.178;4.448;2023-04-03T16:05:22;2.13;;;0.90;;
25948;SDS011;13961;51.178;4.448;2023-04-03T16:07:49;2.10;;;1.08;;
25948;SDS011;13961;51.178;4.448;2023-04-03T16:10:16;1.60;;;0.80;;
25948;SDS011;13961;51.178;4.448;2023-04-03T16:12:43;3.08;;;1.08;;
25948;SDS011;13961;51.178;4.448;2023-04-03T16:15:09;1.58;;;0.82;;
25948;SDS011;13961;51.178;4.448;2023-04-03T16:17:36;2.40;;;0.90;;
25948;SDS011;13961;51.178;4.448;2023-04-03T16:20:04;4.75;;;0.90;;
25948;SDS011;13961;51.178;4.448;2023-04-03T16:22:31;1.63;;;1.10;;
25948;SDS011;13961;51.178;4.448;2023-04-03T16:24:57;1.85;;;0.95;;
25948;SDS011;13961;51.178;4.448;2023-04-03T16:27:22;1.88;;;0.90;;
25948;SDS011;13961;51.178;4.448;2023-04-03T16:29:54;2.53;;;1.33;;
25948;SDS011;13961;51.178;4.448;2023-04-03T16:32:20;1.02;;;0.90;;
25948;SDS011;13961;51.178;4.448;2023-04-03T16:34:46;3.65;;;1.00;;
25948;SDS011;13961;51.178;4.448;2023-04-03T16:37:12;2.83;;;0.98;;
25948;SDS011;13961;51.178;4.448;2023-04-03T16:39:38;3.17;;;1.05;;
25948;SDS011;13961;51.178;4.448;2023-04-03T16:42:04;3.55;;;1.08;;
25948;SDS011;13961;51.178;4.448;2023-04-03T16:44:29;1.95;;;1.00;;